Time;durP1;ratioP1;P1;durP2;ratioP2;P2;SDS_P1;SDS_P2;PMS_P1;PMS_P2;Temp;Humidity;BMP_temperature;BMP_pressure;BME280_temperature;BME280_humidity;BME280_pressure;Samples;Min_cycle;Max_cycle;Signal;HPM_P1;HPM_P2
2022/06/23 00:00:31;;;;;;;2.20;2.08;;;15.40;1.00;;;;;;4997134;28;20191;-86
2022/06/23 00:02:58;;;;;;;2.42;2.22;;;15.40;1.00;;;;;;4997919;28;20187;-85
2022/06/23 00:05:27;;;;;;;2.42;2.22;;;15.30;1.00;;;;;;4998182;28;20190;-85
2022/06/23 00:07:56;;;;;;;2.53;1.90;;;15.30;1.00;;;;;;4995385;28;20661;-85
2022/06/23 00:10:33;;;;;;;2.33;2.13;;;15.30;1.00;;;;;;4997750;28;20187;-85
2022/06/23 00:12:58;;;;;;;2.20;2.00;;;15.20;1.00;;;;;;5012795;28;20210;-86
2022/06/23 00:15:27;;;;;;;2.75;2.45;;;15.20;1.00;;;;;;4997967;28;20282;-86
2022/06/23 00:18:01;;;;;;;2.65;2.30;;;15.20;1.00;;;;;;5014219;28;20180;-86
2022/06/23 00:20:44;;;;;;;2.90;2.35;;;15.10;1.00;;;;;;4996242;28;20273;-86
2022/06/23 00:23:35;;;;;;;3.40;2.30;;;15.10;1.00;;;;;;4996618;28;20596;-87
2022/06/23 00:26:28;;;;;;;3.10;2.38;;;15.10;1.00;;;;;;4997900;28;20195;-86
2022/06/23 00:29:08;;;;;;;2.65;2.20;;;15.00;1.00;;;;;;4997584;28;20216;-87
2022/06/23 00:31:39;;;;;;;3.90;2.45;;;14.90;1.00;;;;;;4997676;28;20168;-87
2022/06/23 00:34:22;;;;;;;2.92;2.15;;;14.80;1.00;;;;;;4997742;28;20681;-85
2022/06/23 00:36:50;;;;;;;3.03;2.80;;;14.70;1.00;;;;;;4998323;28;20188;-85
2022/06/23 00:39:32;;;;;;;2.58;2.38;;;14.70;1.00;;;;;;4995074;28;20686;-86
2022/06/23 00:41:57;;;;;;;3.38;2.42;;;14.60;1.00;;;;;;4997771;28;21014;-86
2022/06/23 00:44:51;;;;;;;4.90;2.70;;;14.50;1.00;;;;;;4995960;28;20227;-86
2022/06/23 00:47:29;;;;;;;3.38;2.40;;;14.50;1.00;;;;;;4997513;28;20238;-86
2022/06/23 00:50:20;;;;;;;2.67;2.47;;;14.50;1.00;;;;;;4997169;28;20218;-86
2022/06/23 00:52:52;;;;;;;3.15;2.65;;;14.40;1.00;;;;;;4997071;28;20275;-86
2022/06/23 00:55:50;;;;;;;2.80;2.53;;;14.30;1.00;;;;;;4995729;28;20216;-86
2022/06/23 00:58:30;;;;;;;4.88;2.90;;;14.30;1.00;;;;;;4970105;28;20216;-87
2022/06/23 01:01:41;;;;;;;4.35;2.65;;;14.20;1.00;;;;;;4996519;28;20290;-88
2022/06/23 01:04:13;;;;;;;3.42;2.88;;;14.20;1.00;;;;;;4995591;28;20195;-87
2022/06/23 01:06:41;;;;;;;4.05;2.70;;;14.10;1.00;;;;;;5011307;28;21018;-88
2022/06/23 01:09:31;;;;;;;3.10;2.78;;;14.10;1.00;;;;;;4996206;28;20390;-85
2022/06/23 01:12:04;;;;;;;3.17;2.88;;;14.10;1.00;;;;;;4993246;28;21217;-86
2022/06/23 01:14:38;;;;;;;3.10;2.53;;;14.00;1.00;;;;;;5008298;28;20200;-86
2022/06/23 01:17:20;;;;;;;4.30;3.00;;;14.00;1.00;;;;;;4995544;28;20792;-83
2022/06/23 01:19:58;;;;;;;4.07;3.10;;;14.00;1.00;;;;;;4995673;28;20696;-86
2022/06/23 01:23:20;;;;;;;3.05;2.40;;;13.90;1.00;;;;;;4997719;28;20180;-86
2022/06/23 01:26:09;;;;;;;5.35;3.00;;;13.90;1.00;;;;;;4937959;28;20372;-85
2022/06/23 01:28:40;;;;;;;3.25;2.97;;;13.90;1.00;;;;;;4995789;28;20291;-85
2022/06/23 01:31:26;;;;;;;4.57;3.05;;;13.90;1.00;;;;;;4996235;28;20180;-87
2022/06/23 01:33:59;;;;;;;3.33;2.70;;;13.80;1.00;;;;;;5012475;28;20184;-85
2022/06/23 01:36:49;;;;;;;5.00;2.72;;;13.80;1.00;;;;;;4996677;28;20198;-86
2022/06/23 01:39:20;;;;;;;4.22;3.25;;;13.80;1.00;;;;;;4994637;28;20283;-86
2022/06/23 01:42:17;;;;;;;4.38;3.17;;;13.80;1.00;;;;;;5011359;28;20668;-87
2022/06/23 01:45:04;;;;;;;8.00;2.90;;;13.70;1.10;;;;;;4996524;28;20256;-86
2022/06/23 01:47:52;;;;;;;3.50;2.97;;;13.70;1.00;;;;;;4995276;28;20175;-87
2022/06/23 01:50:41;;;;;;;4.47;3.15;;;13.70;4.00;;;;;;4996280;28;20696;-85
2022/06/23 01:53:26;;;;;;;3.78;3.35;;;13.60;4.90;;;;;;4994713;28;20197;-85
2022/06/23 01:56:09;;;;;;;3.75;2.97;;;13.60;9.50;;;;;;4996839;28;20204;-86
2022/06/23 01:58:48;;;;;;;4.13;3.45;;;13.60;16.50;;;;;;4994710;28;20288;-86
2022/06/23 02:01:31;;;;;;;4.45;3.45;;;13.60;7.90;;;;;;4992350;28;20191;-86
2022/06/23 02:04:10;;;;;;;3.75;3.45;;;13.60;19.90;;;;;;4994563;28;20223;-85
2022/06/23 02:06:53;;;;;;;6.03;3.80;;;13.60;13.00;;;;;;4997373;28;20211;-84
2022/06/23 02:09:22;;;;;;;5.85;3.78;;;13.50;6.80;;;;;;4995722;28;20203;-86
2022/06/23 02:11:51;;;;;;;4.82;3.72;;;13.50;12.80;;;;;;4994970;28;20192;-86
2022/06/23 02:14:42;;;;;;;6.15;4.07;;;13.40;14.80;;;;;;4994211;28;20218;-85
2022/06/23 02:17:32;;;;;;;3.85;3.45;;;13.40;17.10;;;;;;4994551;28;20179;-87
2022/06/23 02:20:26;;;;;;;5.00;3.45;;;13.40;30.70;;;;;;4994142;28;20271;-87
2022/06/23 02:23:08;;;;;;;3.50;3.20;;;13.30;41.30;;;;;;4967358;28;20203;-86
2022/06/23 02:25:38;;;;;;;4.40;4.00;;;13.30;46.40;;;;;;5011918;28;20649;-86
2022/06/23 02:28:17;;;;;;;4.20;3.80;;;13.30;56.40;;;;;;4996995;28;20230;-86
2022/06/23 02:31:05;;;;;;;4.50;3.60;;;13.20;65.40;;;;;;5017832;28;20215;-85
2022/06/23 02:33:36;;;;;;;4.47;3.67;;;13.20;70.40;;;;;;4999537;28;20197;-86
2022/06/23 02:36:21;;;;;;;4.47;3.90;;;13.20;75.50;;;;;;5001467;28;20192;-86
2022/06/23 02:38:54;;;;;;;4.07;3.67;;;13.10;70.70;;;;;;5001635;28;20214;-86
2022/06/23 02:41:32;;;;;;;5.45;3.60;;;13.10;85.70;;;;;;5001658;28;20296;-85
2022/06/23 02:44:07;;;;;;;3.85;3.45;;;13.10;92.90;;;;;;5001195;28;20673;-85
2022/06/23 02:46:50;;;;;;;5.82;4.00;;;13.10;91.10;;;;;;5000318;28;20190;-85
2022/06/23 02:49:50;;;;;;;6.05;3.88;;;13.00;96.00;;;;;;5000234;28;20203;-86
2022/06/23 02:52:25;;;;;;;3.95;3.60;;;13.00;94.30;;;;;;5001379;28;20176;-86
2022/06/23 02:55:13;;;;;;;4.20;3.80;;;13.00;88.20;;;;;;5001085;28;20692;-86
2022/06/23 02:57:45;;;;;;;4.55;3.63;;;13.00;92.20;;;;;;5001052;28;20708;-86
2022/06/23 03:00:41;;;;;;;5.13;3.90;;;12.90;93.30;;;;;;4993043;28;20210;-86
2022/06/23 03:03:25;;;;;;;5.20;3.70;;;12.90;90.60;;;;;;4975281;28;20184;-86
2022/06/23 03:06:32;;;;;;;5.32;3.72;;;12.90;91.50;;;;;;4996245;28;20187;-85
2022/06/23 03:09:09;;;;;;;4.43;4.03;;;12.90;93.60;;;;;;4998790;28;20250;-86
2022/06/23 03:11:55;;;;;;;5.97;4.28;;;12.80;76.10;;;;;;4993882;28;20187;-85
2022/06/23 03:14:45;;;;;;;9.52;4.70;;;12.70;93.60;;;;;;4995229;28;20246;-86
2022/06/23 03:17:25;;;;;;;5.07;3.95;;;12.70;99.90;;;;;;4998519;28;20599;-86
2022/06/23 03:20:25;;;;;;;4.90;3.90;;;12.70;99.90;;;;;;5001680;28;20586;-86
2022/06/23 03:23:12;;;;;;;5.47;4.15;;;12.70;99.90;;;;;;5017008;28;20245;-88
2022/06/23 03:26:02;;;;;;;6.10;4.30;;;12.80;99.90;;;;;;4998628;28;20657;-86
2022/06/23 03:28:49;;;;;;;7.72;4.40;;;12.80;99.90;;;;;;4992809;28;20250;-86
2022/06/23 03:31:23;;;;;;;5.18;4.57;;;12.80;99.90;;;;;;5000336;28;20271;-87
2022/06/23 03:34:03;;;;;;;4.68;4.22;;;12.80;99.90;;;;;;4989360;28;20195;-86
2022/06/23 03:36:34;;;;;;;4.82;4.07;;;12.80;99.90;;;;;;4995985;28;20265;-86
2022/06/23 03:42:28;;;;;;;5.88;4.00;;;12.90;99.90;;;;;;4992540;28;20238;-87
2022/06/23 03:45:19;;;;;;;5.95;4.20;;;12.80;99.90;;;;;;4992179;28;20437;-86
2022/06/23 03:47:59;;;;;;;4.93;4.45;;;12.80;99.90;;;;;;4987577;28;20216;-87
2022/06/23 03:50:31;;;;;;;5.03;4.28;;;12.80;99.90;;;;;;5009513;28;20205;-87
2022/06/23 03:53:18;;;;;;;5.32;3.90;;;12.80;99.90;;;;;;4996022;28;20613;-86
2022/06/23 03:56:16;;;;;;;6.80;4.13;;;12.90;99.90;;;;;;4996747;28;20208;-86
2022/06/23 03:58:54;;;;;;;5.35;4.10;;;12.90;99.90;;;;;;4992047;28;20265;-87
2022/06/23 04:01:40;;;;;;;5.57;4.13;;;12.90;99.90;;;;;;5007188;28;20209;-86
2022/06/23 04:04:20;;;;;;;5.40;3.90;;;12.90;99.90;;;;;;4960172;28;20200;-86
2022/06/23 04:06:50;;;;;;;6.18;3.83;;;12.90;99.90;;;;;;4997294;28;20559;-86
2022/06/23 04:09:26;;;;;;;6.43;4.55;;;13.00;99.90;;;;;;4990983;28;20212;-86
2022/06/23 04:12:14;;;;;;;5.13;4.63;;;13.00;99.90;;;;;;4984874;28;20254;-86
2022/06/23 04:14:59;;;;;;;6.00;4.72;;;13.10;99.90;;;;;;4988142;28;20326;-88
2022/06/23 04:17:43;;;;;;;6.47;4.47;;;13.10;99.90;;;;;;4993721;28;20681;-88
2022/06/23 04:20:15;;;;;;;5.72;4.13;;;13.20;99.90;;;;;;4990536;28;20207;-88
2022/06/23 04:23:05;;;;;;;4.60;4.20;;;13.30;99.90;;;;;;4989112;28;20190;-88
2022/06/23 04:25:56;;;;;;;6.25;4.70;;;13.30;99.90;;;;;;5004365;28;20235;-88
2022/06/23 04:28:25;;;;;;;6.30;4.90;;;13.40;99.90;;;;;;5009674;28;20214;-88
2022/06/23 04:30:55;;;;;;;4.55;4.13;;;13.40;99.90;;;;;;4987844;28;20747;-87
2022/06/23 04:33:24;;;;;;;5.70;4.63;;;13.50;99.90;;;;;;4993743;28;20242;-87
2022/06/23 04:35:54;;;;;;;6.00;4.72;;;13.60;99.90;;;;;;4990266;28;20218;-87
2022/06/23 04:38:37;;;;;;;5.72;4.35;;;13.80;99.90;;;;;;4995996;28;20246;-86
2022/06/23 04:41:12;;;;;;;6.15;4.63;;;13.80;99.90;;;;;;5012135;28;20283;-86
2022/06/23 04:43:46;;;;;;;5.43;4.80;;;13.90;99.90;;;;;;4997833;28;20179;-87
2022/06/23 04:46:31;;;;;;;7.40;4.68;;;14.00;99.90;;;;;;4997625;28;20186;-86
2022/06/23 04:49:04;;;;;;;4.68;4.28;;;14.10;99.90;;;;;;4994930;28;20208;-86
2022/06/23 04:51:35;;;;;;;7.45;4.82;;;14.20;99.90;;;;;;4997801;28;20547;-86
2022/06/23 04:54:10;;;;;;;7.22;4.82;;;14.40;99.90;;;;;;4995500;28;20682;-88
2022/06/23 04:56:41;;;;;;;5.47;4.75;;;14.50;99.90;;;;;;4996577;28;20176;-87
2022/06/23 04:59:24;;;;;;;5.18;4.07;;;15.20;99.90;;;;;;4996566;28;20207;-86
2022/06/23 05:01:53;;;;;;;4.13;3.58;;;16.80;16.60;;;;;;4997173;28;20262;-87
2022/06/23 05:04:26;;;;;;;3.40;3.20;;;18.80;1.00;;;;;;4997716;28;20188;-86
2022/06/23 05:06:59;;;;;;;3.83;3.20;;;20.50;99.90;;;;;;4995164;28;20230;-87
2022/06/23 05:09:28;;;;;;;4.53;3.05;;;21.90;1.00;;;;;;4996401;28;20199;-87
2022/06/23 05:12:16;;;;;;;3.97;2.83;;;23.00;1.00;;;;;;5012185;28;20196;-86
2022/06/23 05:14:54;;;;;;;3.78;3.33;;;23.70;1.00;;;;;;4995086;28;20250;-86
2022/06/23 05:17:24;;;;;;;3.50;3.20;;;24.30;99.90;;;;;;4997336;28;20176;-87
2022/06/23 05:19:58;;;;;;;3.67;3.30;;;24.50;99.90;;;;;;4997202;28;20262;-86
2022/06/23 05:22:39;;;;;;;5.32;3.42;;;25.00;1.00;;;;;;4995404;28;20208;-87
2022/06/23 05:25:15;;;;;;;6.38;3.53;;;24.70;1.00;;;;;;5010999;28;20179;-86
2022/06/23 05:27:43;;;;;;;2.58;2.38;;;;;;;;;;4995613;28;20178;-86
2022/06/23 05:30:12;;;;;;;3.67;3.35;;;;;;;;;;4994104;28;20219;-87
2022/06/23 05:32:43;;;;;;;4.65;3.08;;;25.00;1.00;;;;;;4995790;28;20703;-87
2022/06/23 05:35:42;;;;;;;3.22;2.88;;;27.00;99.90;;;;;;4996291;28;20215;-86
2022/06/23 05:38:21;;;;;;;3.15;2.85;;;27.90;99.90;;;;;;4995275;28;20295;-87
2022/06/23 05:40:49;;;;;;;3.20;2.90;;;28.30;99.90;;;;;;4995406;28;20175;-87
2022/06/23 05:43:17;;;;;;;3.85;2.70;;;28.50;99.90;;;;;;4995757;28;20250;-86
2022/06/23 05:45:46;;;;;;;4.03;2.78;;;29.00;99.90;;;;;;4996392;28;20245;-87
2022/06/23 05:48:29;;;;;;;2.92;2.70;;;29.20;99.90;;;;;;4997527;28;20188;-87
2022/06/23 05:51:10;;;;;;;4.78;3.10;;;29.90;99.90;;;;;;4995779;28;20282;-87
2022/06/23 05:53:42;;;;;;;3.67;3.10;;;30.00;99.90;;;;;;4994232;28;20188;-87
2022/06/23 05:56:14;;;;;;;3.28;2.10;;;30.20;99.90;;;;;;4996166;28;20662;-87
2022/06/23 05:58:59;;;;;;;3.72;2.72;;;30.60;99.90;;;;;;4994819;28;20294;-88
2022/06/23 06:02:03;;;;;;;3.80;3.05;;;30.40;99.90;;;;;;4995542;28;20168;-88
2022/06/23 06:04:38;;;;;;;3.00;2.80;;;30.60;97.50;;;;;;4981554;28;20188;-87
2022/06/23 06:07:04;;;;;;;4.10;3.00;;;30.20;99.90;;;;;;4995848;28;20183;-87
2022/06/23 06:09:36;;;;;;;3.05;2.65;;;30.10;99.90;;;;;;4993389;28;20693;-87
2022/06/23 06:12:21;;;;;;;3.38;3.08;;;30.00;96.90;;;;;;4994556;28;20666;-87
2022/06/23 06:14:53;;;;;;;4.93;3.30;;;29.90;96.30;;;;;;4994286;28;20199;-88
2022/06/23 06:17:23;;;;;;;2.88;2.67;;;29.70;82.00;;;;;;4994882;28;20184;-88
2022/06/23 06:19:51;;;;;;;4.32;2.80;;;29.80;91.60;;;;;;5010593;28;20290;-88
2022/06/23 06:22:49;;;;;;;3.38;2.85;;;30.20;84.50;;;;;;4996051;28;20191;-88
2022/06/23 06:25:25;;;;;;;2.78;2.58;;;30.80;77.80;;;;;;4996599;28;20230;-88
2022/06/23 06:27:53;;;;;;;4.35;2.95;;;31.50;49.70;;;;;;4995073;28;20194;-87
2022/06/23 06:30:28;;;;;;;3.45;3.15;;;31.60;33.80;;;;;;4995301;28;20207;-88
2022/06/23 06:32:54;;;;;;;4.10;3.15;;;30.70;23.40;;;;;;4994914;28;20187;-88
2022/06/23 06:35:35;;;;;;;4.35;2.58;;;31.20;29.60;;;;;;4995068;28;20211;-88
2022/06/23 06:38:07;;;;;;;4.22;2.75;;;31.60;29.10;;;;;;5009462;28;20202;-84
2022/06/23 06:40:35;;;;;;;3.50;3.20;;;32.20;17.90;;;;;;4995021;28;21057;-85
2022/06/23 06:43:08;;;;;;;2.58;2.38;;;32.50;11.50;;;;;;4994890;28;20195;-86
2022/06/23 06:45:36;;;;;;;4.05;2.70;;;32.70;6.80;;;;;;4991018;28;20469;-85
2022/06/23 06:48:09;;;;;;;4.55;2.60;;;32.20;2.90;;;;;;4990082;28;20198;-85
2022/06/23 06:50:41;;;;;;;3.13;2.53;;;32.10;1.00;;;;;;4990096;28;20433;-85
2022/06/23 06:53:21;;;;;;;4.93;3.53;;;32.20;1.00;;;;;;4992686;28;20193;-86
2022/06/23 06:55:51;;;;;;;4.47;3.17;;;31.20;1.00;;;;;;4992078;28;20222;-86
2022/06/23 06:58:30;;;;;;;5.05;3.20;;;30.80;2.40;;;;;;4989582;28;20212;-88
2022/06/23 07:01:01;;;;;;;3.28;2.95;;;31.50;3.20;;;;;;4989477;28;20192;-88
2022/06/23 07:03:28;;;;;;;4.10;2.97;;;32.10;1.00;;;;;;4988201;28;20172;-88
2022/06/23 07:06:15;;;;;;;3.78;3.05;;;32.10;1.00;;;;;;4990844;28;20191;-88
2022/06/23 07:09:06;;;;;;;5.72;2.90;;;32.90;1.00;;;;;;4986055;28;20444;-88
2022/06/23 07:11:45;;;;;;;3.78;2.92;;;33.40;1.00;;;;;;4992283;28;20573;-88
2022/06/23 07:14:38;;;;;;;6.15;3.33;;;33.30;1.00;;;;;;4996649;28;20516;-88
2022/06/23 07:17:14;;;;;;;5.47;3.00;;;33.10;1.00;;;;;;4992371;28;20192;-86
2022/06/23 07:20:05;;;;;;;6.00;2.90;;;33.00;1.00;;;;;;4991188;28;20219;-87
2022/06/23 07:22:38;;;;;;;3.72;3.03;;;32.80;1.00;;;;;;4990287;28;20180;-88
2022/06/23 07:25:26;;;;;;;4.43;2.90;;;32.00;1.00;;;;;;4994421;28;20192;-87
2022/06/23 07:27:55;;;;;;;3.13;2.70;;;31.20;1.00;;;;;;5013194;28;20195;-89
2022/06/23 07:30:42;;;;;;;3.22;2.90;;;31.10;1.00;;;;;;4998274;28;20218;-90
2022/06/23 07:33:24;;;;;;;3.08;2.78;;;30.40;1.00;;;;;;4999356;28;20206;-90
2022/06/23 07:36:04;;;;;;;4.90;3.22;;;;;;;;;;5000561;28;20689;-87
2022/06/23 07:38:36;;;;;;;4.13;3.05;;;;;;;;;;4996546;28;20226;-88
2022/06/23 07:41:07;;;;;;;4.15;2.78;;;;;;;;;;4995835;28;20267;-88
2022/06/23 07:43:38;;;;;;;3.45;3.15;;;;;;;;;;4997432;28;20226;-87
2022/06/23 07:46:04;;;;;;;5.78;3.33;;;29.20;1.00;;;;;;4991417;28;20670;-87
2022/06/23 07:48:32;;;;;;;4.07;2.97;;;25.50;99.90;;;;;;4992147;28;20261;-87
2022/06/23 07:51:00;;;;;;;3.33;2.90;;;25.10;99.90;;;;;;4994133;28;20193;-87
2022/06/23 07:53:30;;;;;;;5.47;3.00;;;25.10;1.00;;;;;;4991738;28;20234;-88
2022/06/23 07:55:56;;;;;;;3.38;3.00;;;24.90;1.00;;;;;;4997802;28;20442;-87
2022/06/23 07:58:27;;;;;;;3.45;2.80;;;25.00;1.00;;;;;;4993027;28;20204;-87
2022/06/23 08:01:25;;;;;;;4.35;2.80;;;24.90;1.00;;;;;;4993605;28;20238;-87
2022/06/23 08:03:57;;;;;;;4.57;2.78;;;24.80;1.00;;;;;;4940453;28;20307;-88
2022/06/23 08:06:24;;;;;;;4.25;2.83;;;24.60;1.00;;;;;;4994896;28;20212;-87
2022/06/23 08:08:55;;;;;;;5.95;3.05;;;24.60;1.00;;;;;;4996358;28;20574;-87
2022/06/23 08:14:13;;;;;;;5.05;2.75;;;24.60;1.00;;;;;;4994473;28;20215;-87
2022/06/23 08:16:50;;;;;;;3.55;2.75;;;24.60;1.00;;;;;;4993714;28;20188;-88
2022/06/23 08:19:28;;;;;;;3.90;2.50;;;24.70;1.00;;;;;;4994698;28;20196;-88
2022/06/23 08:22:11;;;;;;;4.10;2.20;;;24.90;1.00;;;;;;4995380;28;20803;-87
2022/06/23 08:24:38;;;;;;;5.57;2.63;;;24.90;1.00;;;;;;4988970;28;20191;-87
2022/06/23 08:27:09;;;;;;;6.65;2.67;;;24.90;1.00;;;;;;4991218;28;20191;-87
2022/06/23 08:29:45;;;;;;;4.07;2.50;;;25.10;1.00;;;;;;4994585;28;20577;-88
2022/06/23 08:32:11;;;;;;;3.25;2.40;;;25.10;99.90;;;;;;5000467;28;20190;-88
2022/06/23 08:34:40;;;;;;;3.08;2.40;;;25.20;99.90;;;;;;4995125;28;20762;-87
2022/06/23 08:37:19;;;;;;;5.93;2.47;;;25.30;99.90;;;;;;4992809;28;20286;-88
2022/06/23 08:39:55;;;;;;;3.35;1.92;;;25.30;99.90;;;;;;5004137;28;20214;-87
2022/06/23 08:42:40;;;;;;;2.17;1.90;;;25.30;99.90;;;;;;5008840;28;20176;-88
2022/06/23 08:45:24;;;;;;;3.00;2.15;;;25.30;99.90;;;;;;5001361;28;20197;-88
2022/06/23 08:48:02;;;;;;;2.90;2.30;;;25.40;99.90;;;;;;5000469;28;20214;-88
2022/06/23 08:50:47;;;;;;;2.67;2.33;;;25.40;99.90;;;;;;4995527;28;20291;-88
2022/06/23 08:53:39;;;;;;;2.78;2.08;;;25.60;99.90;;;;;;4989359;28;20188;-87
2022/06/23 08:56:21;;;;;;;2.58;1.98;;;25.70;99.90;;;;;;4984190;28;20495;-87
2022/06/23 08:59:12;;;;;;;2.55;1.90;;;25.70;99.90;;;;;;4994677;28;20223;-88
2022/06/23 09:01:45;;;;;;;2.10;1.75;;;25.80;99.90;;;;;;4994389;28;20238;-87
2022/06/23 09:04:48;;;;;;;2.10;1.90;;;25.80;99.90;;;;;;4996727;28;20276;-87
2022/06/23 09:07:29;;;;;;;2.03;1.83;;;25.90;99.00;;;;;;4994264;28;20295;-87
2022/06/23 09:10:06;;;;;;;1.90;1.65;;;26.00;99.90;;;;;;4993965;28;20204;-87
2022/06/23 09:12:53;;;;;;;2.35;1.70;;;26.00;70.80;;;;;;4993423;28;20559;-87
2022/06/23 09:15:28;;;;;;;1.80;1.52;;;26.10;83.60;;;;;;4989903;28;20215;-87
2022/06/23 09:18:09;;;;;;;1.40;1.30;;;26.20;58.60;;;;;;4989539;28;20247;-87
2022/06/23 09:21:13;;;;;;;2.25;1.55;;;26.30;66.40;;;;;;4992239;28;20505;-87
2022/06/23 09:23:58;;;;;;;2.05;1.58;;;;;;;;;;4988915;28;20187;-87
2022/06/23 09:26:23;;;;;;;2.78;2.03;;;;;;;;;;4987814;28;20212;-87
2022/06/23 09:29:01;;;;;;;2.33;1.80;;;26.40;31.40;;;;;;4995567;28;20207;-87
2022/06/23 09:31:46;;;;;;;5.00;2.13;;;26.50;45.20;;;;;;4993972;28;20188;-87
2022/06/23 09:34:35;;;;;;;2.17;1.60;;;26.40;37.10;;;;;;4994846;28;20685;-87
2022/06/23 09:37:19;;;;;;;2.90;2.10;;;26.40;67.30;;;;;;4995574;28;20619;-87
2022/06/23 09:40:26;;;;;;;4.70;1.80;;;26.50;51.30;;;;;;4994590;28;20211;-86
2022/06/23 09:43:28;;;;;;;3.63;1.95;;;26.50;30.80;;;;;;4980107;28;20191;-86
2022/06/23 09:46:09;;;;;;;3.58;1.67;;;26.70;37.70;;;;;;4993359;28;20183;-87
2022/06/23 09:48:58;;;;;;;2.10;1.88;;;26.80;23.70;;;;;;4988193;28;20468;-86
2022/06/23 09:51:43;;;;;;;2.10;1.88;;;26.80;19.60;;;;;;4993335;28;20180;-87
2022/06/23 09:54:27;;;;;;;1.77;1.67;;;26.90;24.40;;;;;;4990506;28;20201;-87
2022/06/23 09:57:00;;;;;;;2.22;2.03;;;27.00;23.20;;;;;;4991872;28;20274;-87
2022/06/23 09:59:37;;;;;;;1.85;1.75;;;27.00;16.00;;;;;;4987907;28;20682;-87
2022/06/23 10:02:32;;;;;;;5.20;1.90;;;27.00;15.00;;;;;;4985658;28;20187;-87
2022/06/23 10:05:21;;;;;;;4.22;1.90;;;27.10;14.70;;;;;;4987011;28;20188;-87
2022/06/23 10:08:15;;;;;;;2.13;1.83;;;27.10;1.00;;;;;;4988900;28;20594;-87
2022/06/23 10:11:15;;;;;;;3.30;2.03;;;27.20;1.00;;;;;;4985718;28;20207;-87
2022/06/23 10:13:41;;;;;;;3.38;2.10;;;;;;;;;;4996383;28;20249;-87
2022/06/23 10:16:21;;;;;;;2.97;1.80;;;27.20;1.00;;;;;;4993946;28;20219;-87
2022/06/23 10:19:02;;;;;;;2.78;1.75;;;27.40;1.00;;;;;;4995133;28;20199;-87
2022/06/23 10:21:33;;;;;;;1.75;1.65;;;27.40;1.00;;;;;;4993958;28;20176;-87
2022/06/23 10:24:28;;;;;;;2.88;1.80;;;27.50;1.00;;;;;;4994510;28;20594;-87
2022/06/23 10:27:13;;;;;;;1.67;1.58;;;27.40;1.00;;;;;;4996017;28;20180;-87
2022/06/23 10:29:41;;;;;;;3.50;2.20;;;27.50;1.00;;;;;;4993256;28;20342;-87
2022/06/23 10:32:29;;;;;;;2.22;1.67;;;27.50;1.00;;;;;;4996809;28;20223;-86
2022/06/23 10:35:51;;;;;;;2.35;1.90;;;27.60;1.00;;;;;;4996512;28;20210;-86
2022/06/23 10:38:43;;;;;;;1.80;1.70;;;27.70;1.00;;;;;;4985352;28;20192;-87
2022/06/23 10:41:37;;;;;;;5.80;2.00;;;27.60;1.00;;;;;;4998667;28;20180;-86
2022/06/23 10:44:27;;;;;;;1.65;1.52;;;27.70;1.00;;;;;;4996066;28;20625;-86
2022/06/23 10:47:12;;;;;;;1.80;1.60;;;27.70;1.00;;;;;;5011977;28;20685;-86
2022/06/23 10:50:06;;;;;;;2.15;1.73;;;27.70;1.00;;;;;;4999742;28;20288;-86
2022/06/23 10:52:50;;;;;;;2.72;1.58;;;27.70;1.00;;;;;;4991078;28;20206;-87
2022/06/23 10:55:15;;;;;;;2.10;1.85;;;27.70;1.00;;;;;;4999203;28;20674;-87
2022/06/23 10:58:05;;;;;;;2.15;1.90;;;27.70;1.00;;;;;;5000709;28;20201;-88
2022/06/23 11:00:58;;;;;;;2.13;1.63;;;27.80;1.00;;;;;;5018840;28;20557;-89
2022/06/23 11:03:26;;;;;;;2.35;1.80;;;27.90;1.00;;;;;;5002435;28;20180;-86
2022/06/23 11:06:07;;;;;;;2.22;1.70;;;28.00;1.00;;;;;;5001068;28;20195;-87
2022/06/23 11:09:02;;;;;;;1.80;1.70;;;28.10;1.00;;;;;;4999535;28;20210;-88
2022/06/23 11:11:41;;;;;;;3.25;2.00;;;28.20;1.00;;;;;;5000755;28;20631;-86
2022/06/23 11:14:32;;;;;;;2.88;1.67;;;28.30;1.00;;;;;;5000964;28;20197;-87
2022/06/23 11:17:00;;;;;;;3.35;1.80;;;28.30;1.00;;;;;;5000964;28;20187;-87
2022/06/23 11:19:57;;;;;;;2.30;2.10;;;28.30;1.00;;;;;;4999021;28;20208;-87
2022/06/23 11:22:38;;;;;;;2.75;1.75;;;28.40;1.00;;;;;;4998873;28;20412;-86
2022/06/23 11:25:09;;;;;;;1.73;1.63;;;28.40;1.00;;;;;;4999646;28;20218;-87
2022/06/23 11:28:04;;;;;;;3.78;2.20;;;28.30;1.00;;;;;;4998555;28;20183;-87
2022/06/23 11:30:41;;;;;;;2.28;2.08;;;28.30;1.00;;;;;;4996480;28;20676;-87
2022/06/23 11:33:53;;;;;;;4.90;1.83;;;28.40;1.00;;;;;;4999106;28;20191;-87
2022/06/23 11:36:37;;;;;;;3.38;1.70;;;28.50;1.00;;;;;;4996875;28;20242;-86
2022/06/23 11:39:11;;;;;;;1.55;1.45;;;28.60;1.00;;;;;;4998889;28;20207;-86
2022/06/23 11:41:53;;;;;;;2.45;1.90;;;28.60;1.00;;;;;;4997714;28;20274;-86
2022/06/23 11:44:47;;;;;;;2.33;1.73;;;28.60;1.00;;;;;;4998204;28;20176;-87
2022/06/23 11:47:39;;;;;;;2.25;1.60;;;28.60;1.00;;;;;;4998236;28;20184;-86
2022/06/23 11:50:14;;;;;;;2.65;1.67;;;28.70;1.00;;;;;;4995983;28;20637;-87
2022/06/23 11:53:03;;;;;;;2.13;1.70;;;28.70;1.00;;;;;;4995611;28;20176;-87
2022/06/23 11:55:54;;;;;;;4.60;1.90;;;28.80;1.00;;;;;;4994020;28;20643;-87
2022/06/23 11:58:38;;;;;;;1.98;1.80;;;28.70;1.00;;;;;;4994289;28;20500;-87
2022/06/23 12:01:17;;;;;;;2.10;1.75;;;28.70;1.00;;;;;;5010186;28;20278;-87
2022/06/23 12:04:11;;;;;;;1.90;1.80;;;28.90;1.00;;;;;;4998926;28;20183;-87
2022/06/23 12:06:55;;;;;;;2.95;1.80;;;28.90;1.00;;;;;;4992676;28;20503;-87
2022/06/23 12:09:34;;;;;;;1.70;1.60;;;28.80;1.00;;;;;;4988611;28;20210;-85
2022/06/23 12:12:02;;;;;;;1.83;1.70;;;29.00;1.00;;;;;;5011492;28;20543;-88
2022/06/23 12:14:28;;;;;;;1.80;1.70;;;29.10;1.00;;;;;;4999052;28;20223;-87
2022/06/23 12:16:57;;;;;;;2.22;1.70;;;29.10;1.00;;;;;;4993263;28;20184;-87
2022/06/23 12:19:34;;;;;;;3.08;2.00;;;29.10;1.00;;;;;;4994515;28;20346;-87
2022/06/23 12:22:09;;;;;;;2.42;1.63;;;29.20;1.00;;;;;;4995862;28;20726;-87
2022/06/23 12:24:45;;;;;;;2.53;1.73;;;29.30;1.00;;;;;;5008556;28;20214;-88
2022/06/23 12:27:25;;;;;;;2.75;1.70;;;29.50;1.00;;;;;;4990959;28;20199;-87
2022/06/23 12:30:00;;;;;;;2.35;1.60;;;29.60;1.00;;;;;;4992554;28;20239;-88
2022/06/23 12:32:39;;;;;;;2.58;1.63;;;29.60;1.00;;;;;;4994246;28;20183;-88
2022/06/23 12:35:05;;;;;;;2.03;1.50;;;29.60;1.00;;;;;;4992615;28;20208;-88
2022/06/23 12:37:47;;;;;;;3.17;1.92;;;29.60;1.00;;;;;;4997601;28;20214;-88
2022/06/23 12:40:35;;;;;;;2.95;1.83;;;29.50;1.00;;;;;;4996734;28;20696;-87
2022/06/23 12:43:25;;;;;;;5.30;1.83;;;29.60;1.00;;;;;;4992663;28;20676;-88
2022/06/23 12:46:09;;;;;;;1.88;1.67;;;29.60;1.00;;;;;;4990372;28;20569;-87
2022/06/23 12:48:49;;;;;;;1.67;1.50;;;29.60;1.00;;;;;;4993874;28;20290;-88
2022/06/23 12:51:23;;;;;;;1.73;1.42;;;29.70;1.00;;;;;;4993326;28;20184;-87
2022/06/23 12:53:57;;;;;;;1.50;1.40;;;29.80;1.00;;;;;;4990361;28;20207;-88
2022/06/23 12:56:31;;;;;;;1.50;1.40;;;29.80;1.00;;;;;;4997456;28;20218;-88
2022/06/23 12:59:09;;;;;;;3.83;1.77;;;30.00;1.00;;;;;;5016442;28;20203;-88
2022/06/23 13:01:47;;;;;;;2.45;2.00;;;30.00;1.00;;;;;;4991832;28;20198;-88
2022/06/23 13:04:40;;;;;;;1.88;1.77;;;30.00;1.00;;;;;;4989396;28;20191;-88
2022/06/23 13:07:42;;;;;;;1.65;1.55;;;30.00;1.00;;;;;;4991472;28;20188;-88
2022/06/23 13:10:10;;;;;;;2.20;1.63;;;30.00;1.00;;;;;;4995286;28;20241;-88
2022/06/23 13:12:51;;;;;;;3.08;1.73;;;30.10;1.00;;;;;;4984753;28;20659;-88
2022/06/23 13:15:40;;;;;;;1.40;1.30;;;30.20;1.00;;;;;;4991806;28;20345;-88
2022/06/23 13:18:14;;;;;;;1.65;1.45;;;30.20;1.00;;;;;;4992160;28;20184;-88
2022/06/23 13:21:02;;;;;;;1.35;1.25;;;30.20;1.00;;;;;;4989141;28;20191;-87
2022/06/23 13:23:38;;;;;;;2.30;1.50;;;30.10;1.00;;;;;;4990383;28;20180;-88
2022/06/23 13:26:25;;;;;;;2.22;1.52;;;30.10;1.00;;;;;;4997988;28;20214;-88
2022/06/23 13:29:00;;;;;;;2.45;1.40;;;30.20;1.00;;;;;;4990298;28;20204;-89
2022/06/23 13:31:43;;;;;;;1.92;1.63;;;30.20;1.00;;;;;;5008772;28;20191;-88
2022/06/23 13:34:30;;;;;;;1.60;1.33;;;30.20;1.00;;;;;;4995128;28;20191;-88
2022/06/23 13:37:38;;;;;;;2.35;1.30;;;30.20;1.00;;;;;;4995066;28;20187;-88
2022/06/23 13:40:33;;;;;;;1.33;1.23;;;30.20;1.00;;;;;;4995128;28;20205;-86
2022/06/23 13:43:21;;;;;;;3.25;1.40;;;30.30;1.00;;;;;;4997074;28;20184;-86
2022/06/23 13:46:06;;;;;;;2.58;1.40;;;30.30;1.00;;;;;;4995104;28;20192;-88
2022/06/23 13:48:48;;;;;;;2.25;1.50;;;30.30;1.00;;;;;;4971969;28;20237;-86
2022/06/23 13:51:25;;;;;;;1.98;1.75;;;30.30;1.00;;;;;;4991935;28;20199;-86
2022/06/23 13:54:03;;;;;;;2.67;1.60;;;30.40;1.00;;;;;;4990767;28;20202;-87
2022/06/23 13:56:54;;;;;;;2.08;1.65;;;30.50;1.00;;;;;;4987061;28;20243;-86
2022/06/23 13:59:33;;;;;;;2.10;1.90;;;30.50;1.00;;;;;;5011180;28;20198;-86
2022/06/23 14:02:09;;;;;;;1.80;1.65;;;30.40;1.00;;;;;;4989996;28;20188;-86
2022/06/23 14:05:20;;;;;;;2.10;1.80;;;30.50;1.00;;;;;;4984184;28;20195;-86
2022/06/23 14:08:06;;;;;;;3.03;1.85;;;30.60;1.00;;;;;;4937052;28;20247;-87
2022/06/23 14:10:58;;;;;;;4.25;1.85;;;30.50;1.00;;;;;;4939546;28;20268;-84